Arctic Village Airport Arctic Village US
ICAO: PARC
IATA:
Category: Medium
Scheduled Services:

Elevation: 2092 ft
TransAlt. 18000 ft.

Airport Communications:
ANCHORAGE CNTR:135
AWOS 3:135.75
CTAF:122.9
FAIRBANKS RDO:122.1

PARC Zoom In..

If Map Doesn't Load, Click Here

Runways:

(A) RW 02 length 4500 ft width 75 ft
---- / hdg 19

(B) RW 20 length 4500 ft width 75 ft
---- / hdg 199

Location; PARC
Day. 26 / Time. 08.56 Zulu
* Altimeter: 30.13
* Temperature: -04° c. -24.8°f.
* Wind from: 020° Speed 04 kn.
Dewpoint: -06° c.
Visibility: 10 Statute Miles.
Clouds: Overcast 2800 ft.

PARC 260856Z AUTO 02004KT 10SM OVC028 M04/M06 A3013 RMK AO2 SLP257 T10391061 400061083 51015 FZRANO


Wind From 020°
Speed 04 kn.

 
 
jpsmedia.com for Web Design worldairports.se 2018   terms of use